sensor_id;sensor_type;location;lat;lon;timestamp;pressure;altitude;pressure_sealevel;temperature;humidity
80733;BME280;70130;44.534;18.678;2023-08-17T00:02:24;99126.84;;;18.21;83.57
80733;BME280;70130;44.534;18.678;2023-08-17T00:04:49;99130.41;;;18.25;83.63
80733;BME280;70130;44.534;18.678;2023-08-17T00:07:15;99122.63;;;18.24;83.44
80733;BME280;70130;44.534;18.678;2023-08-17T00:09:40;99130.28;;;18.15;83.96
80733;BME280;70130;44.534;18.678;2023-08-17T00:12:06;99136.91;;;18.21;83.77
80733;BME280;70130;44.534;18.678;2023-08-17T00:14:32;99130.72;;;18.20;83.82
80733;BME280;70130;44.534;18.678;2023-08-17T00:16:57;99135.94;;;18.02;84.55
80733;BME280;70130;44.534;18.678;2023-08-17T00:19:23;99137.50;;;18.03;84.37
80733;BME280;70130;44.534;18.678;2023-08-17T00:21:49;99138.34;;;18.11;83.93
80733;BME280;70130;44.534;18.678;2023-08-17T00:24:14;99132.53;;;18.09;84.32
80733;BME280;70130;44.534;18.678;2023-08-17T00:26:40;99137.22;;;18.12;84.03
80733;BME280;70130;44.534;18.678;2023-08-17T00:29:06;99131.09;;;18.19;83.66
80733;BME280;70130;44.534;18.678;2023-08-17T00:31:32;99125.34;;;18.24;83.59
80733;BME280;70130;44.534;18.678;2023-08-17T00:33:58;99123.28;;;18.13;83.89
80733;BME280;70130;44.534;18.678;2023-08-17T00:36:24;99126.84;;;18.21;83.44
80733;BME280;70130;44.534;18.678;2023-08-17T00:38:49;99129.94;;;18.20;83.16
80733;BME280;70130;44.534;18.678;2023-08-17T00:41:15;99122.91;;;18.15;83.72
80733;BME280;70130;44.534;18.678;2023-08-17T00:43:40;99123.72;;;18.19;83.53
80733;BME280;70130;44.534;18.678;2023-08-17T00:46:06;99119.44;;;18.18;83.06
80733;BME280;70130;44.534;18.678;2023-08-17T00:48:33;99121.75;;;18.16;83.14
80733;BME280;70130;44.534;18.678;2023-08-17T00:50:59;99121.22;;;18.03;83.45
80733;BME280;70130;44.534;18.678;2023-08-17T00:53:27;99114.22;;;18.02;83.53
80733;BME280;70130;44.534;18.678;2023-08-17T00:55:54;99125.72;;;17.92;83.99
80733;BME280;70130;44.534;18.678;2023-08-17T00:58:21;99119.91;;;17.90;84.07
80733;BME280;70130;44.534;18.678;2023-08-17T01:00:47;99110.84;;;17.79;84.40
80733;BME280;70130;44.534;18.678;2023-08-17T01:03:13;99113.88;;;17.74;84.76
80733;BME280;70130;44.534;18.678;2023-08-17T01:05:38;99112.97;;;17.66;85.24
80733;BME280;70130;44.534;18.678;2023-08-17T01:08:04;99116.25;;;17.79;84.79
80733;BME280;70130;44.534;18.678;2023-08-17T01:11:05;99116.25;;;17.79;84.37
80733;BME280;70130;44.534;18.678;2023-08-17T01:15:58;99113.50;;;17.76;84.63
80733;BME280;70130;44.534;18.678;2023-08-17T01:18:33;99111.66;;;17.83;84.09
80733;BME280;70130;44.534;18.678;2023-08-17T01:21:02;99111.69;;;17.87;83.76
80733;BME280;70130;44.534;18.678;2023-08-17T01:23:28;99099.66;;;17.84;83.44
80733;BME280;70130;44.534;18.678;2023-08-17T01:25:54;99111.28;;;17.85;83.17
80733;BME280;70130;44.534;18.678;2023-08-17T01:28:20;99100.03;;;17.86;82.89
80733;BME280;70130;44.534;18.678;2023-08-17T01:33:39;99102.03;;;17.89;82.63
80733;BME280;70130;44.534;18.678;2023-08-17T01:38:44;99107.38;;;17.82;82.82
80733;BME280;70130;44.534;18.678;2023-08-17T01:41:10;99104.63;;;17.79;82.86
80733;BME280;70130;44.534;18.678;2023-08-17T01:43:41;99102.72;;;17.83;82.49
80733;BME280;70130;44.534;18.678;2023-08-17T01:46:13;99110.41;;;17.77;83.00
80733;BME280;70130;44.534;18.678;2023-08-17T01:48:41;99106.88;;;17.73;82.99
80733;BME280;70130;44.534;18.678;2023-08-17T01:51:07;99103.84;;;17.78;82.80
80733;BME280;70130;44.534;18.678;2023-08-17T01:53:32;99098.44;;;17.82;82.81
80733;BME280;70130;44.534;18.678;2023-08-17T01:55:58;99105.78;;;17.81;82.60
80733;BME280;70130;44.534;18.678;2023-08-17T01:58:23;99100.66;;;17.73;83.05
80733;BME280;70130;44.534;18.678;2023-08-17T02:00:49;99104.63;;;17.79;83.19
80733;BME280;70130;44.534;18.678;2023-08-17T02:03:14;99100.91;;;17.60;83.75
80733;BME280;70130;44.534;18.678;2023-08-17T02:05:46;99103.75;;;17.71;83.28
80733;BME280;70130;44.534;18.678;2023-08-17T02:08:14;99105.25;;;17.68;83.66
80733;BME280;70130;44.534;18.678;2023-08-17T02:10:39;99106.41;;;17.67;83.69
80733;BME280;70130;44.534;18.678;2023-08-17T02:13:05;99104.91;;;17.70;83.69
80733;BME280;70130;44.534;18.678;2023-08-17T02:15:31;99100.69;;;17.76;83.74
80733;BME280;70130;44.534;18.678;2023-08-17T02:18:00;99086.75;;;17.78;83.65
80733;BME280;70130;44.534;18.678;2023-08-17T02:20:28;99085.66;;;17.82;83.56
80733;BME280;70130;44.534;18.678;2023-08-17T02:22:53;99079.88;;;17.84;83.54
80733;BME280;70130;44.534;18.678;2023-08-17T02:25:19;99091.53;;;17.88;83.47
80733;BME280;70130;44.534;18.678;2023-08-17T02:27:44;99090.75;;;17.87;83.55
80733;BME280;70130;44.534;18.678;2023-08-17T02:30:11;99093.88;;;17.86;83.64
80733;BME280;70130;44.534;18.678;2023-08-17T02:32:36;99083.72;;;17.83;83.88
80733;BME280;70130;44.534;18.678;2023-08-17T02:35:02;99083.81;;;17.90;83.99
80733;BME280;70130;44.534;18.678;2023-08-17T02:37:28;99081.00;;;17.83;84.12
80733;BME280;70130;44.534;18.678;2023-08-17T02:39:53;99082.13;;;17.78;85.09
80733;BME280;70130;44.534;18.678;2023-08-17T02:42:19;99089.97;;;17.87;84.23
80733;BME280;70130;44.534;18.678;2023-08-17T02:44:44;99082.47;;;17.77;84.38
80733;BME280;70130;44.534;18.678;2023-08-17T02:47:10;99082.56;;;17.84;84.41
80733;BME280;70130;44.534;18.678;2023-08-17T02:49:36;99093.75;;;17.79;84.12
80733;BME280;70130;44.534;18.678;2023-08-17T02:52:01;99088.38;;;17.82;83.93
80733;BME280;70130;44.534;18.678;2023-08-17T02:54:27;99090.75;;;17.87;83.68
80733;BME280;70130;44.534;18.678;2023-08-17T02:56:53;99091.53;;;17.88;83.68
80733;BME280;70130;44.534;18.678;2023-08-17T02:59:20;99099.31;;;17.89;83.83
80733;BME280;70130;44.534;18.678;2023-08-17T03:01:45;99101.13;;;17.78;84.05
80733;BME280;70130;44.534;18.678;2023-08-17T03:04:12;99103.00;;;17.74;84.53
80733;BME280;70130;44.534;18.678;2023-08-17T03:06:38;99095.78;;;17.85;84.13
80733;BME280;70130;44.534;18.678;2023-08-17T03:09:04;99102.44;;;17.91;83.83
80733;BME280;70130;44.534;18.678;2023-08-17T03:11:29;99104.81;;;17.96;83.80
80733;BME280;70130;44.534;18.678;2023-08-17T03:13:55;99109.75;;;17.87;84.08
80733;BME280;70130;44.534;18.678;2023-08-17T03:16:26;99116.72;;;17.85;83.78
80733;BME280;70130;44.534;18.678;2023-08-17T03:18:52;99121.75;;;17.86;83.89
80733;BME280;70130;44.534;18.678;2023-08-17T03:21:18;99115.97;;;17.88;83.42
80733;BME280;70130;44.534;18.678;2023-08-17T03:23:46;99110.66;;;17.65;84.44
80733;BME280;70130;44.534;18.678;2023-08-17T03:26:11;99115.16;;;17.57;85.03
80733;BME280;70130;44.534;18.678;2023-08-17T03:28:37;99101.59;;;17.57;84.81
80733;BME280;70130;44.534;18.678;2023-08-17T03:31:03;99106.81;;;17.69;84.46
80733;BME280;70130;44.534;18.678;2023-08-17T03:33:29;99119.69;;;17.76;84.13
80733;BME280;70130;44.534;18.678;2023-08-17T03:35:55;99117.44;;;17.82;84.01
80733;BME280;70130;44.534;18.678;2023-08-17T03:38:20;99123.63;;;17.79;84.21
80733;BME280;70130;44.534;18.678;2023-08-17T03:40:47;99119.69;;;17.76;84.12
80733;BME280;70130;44.534;18.678;2023-08-17T03:43:13;99116.97;;;17.76;84.08
80733;BME280;70130;44.534;18.678;2023-08-17T03:45:41;99129.16;;;17.86;83.71
80733;BME280;70130;44.534;18.678;2023-08-17T03:48:07;99128.84;;;17.91;83.94
80733;BME280;70130;44.534;18.678;2023-08-17T03:50:33;99126.69;;;17.77;84.37
80733;BME280;70130;44.534;18.678;2023-08-17T03:52:58;99123.97;;;17.77;84.41
80733;BME280;70130;44.534;18.678;2023-08-17T03:55:24;99130.28;;;17.85;84.00
80733;BME280;70130;44.534;18.678;2023-08-17T03:57:50;99123.72;;;17.86;83.51
80733;BME280;70130;44.534;18.678;2023-08-17T04:00:16;99134.84;;;17.77;83.81
80733;BME280;70130;44.534;18.678;2023-08-17T04:02:41;99136.50;;;17.85;83.58
80733;BME280;70130;44.534;18.678;2023-08-17T04:05:10;99140.25;;;17.77;84.07
80733;BME280;70130;44.534;18.678;2023-08-17T04:07:36;99144.25;;;17.87;83.75
80733;BME280;70130;44.534;18.678;2023-08-17T04:10:04;99142.34;;;17.87;83.81
80733;BME280;70130;44.534;18.678;2023-08-17T04:12:31;99147.88;;;17.94;83.47
80733;BME280;70130;44.534;18.678;2023-08-17T04:14:56;99152.50;;;17.94;83.95
80733;BME280;70130;44.534;18.678;2023-08-17T04:17:22;99151.38;;;17.95;83.90
80733;BME280;70130;44.534;18.678;2023-08-17T04:19:48;99148.25;;;17.96;83.86
80733;BME280;70130;44.534;18.678;2023-08-17T04:22:14;99146.66;;;17.92;83.98
80733;BME280;70130;44.534;18.678;2023-08-17T04:24:40;99145.88;;;17.91;84.33
80733;BME280;70130;44.534;18.678;2023-08-17T04:27:06;99143.22;;;17.95;84.02
80733;BME280;70130;44.534;18.678;2023-08-17T04:29:32;99143.69;;;18.00;83.83
80733;BME280;70130;44.534;18.678;2023-08-17T04:32:00;99146.44;;;18.04;84.07
80733;BME280;70130;44.534;18.678;2023-08-17T04:34:25;99142.84;;;17.96;84.52
80733;BME280;70130;44.534;18.678;2023-08-17T04:36:51;99146.31;;;17.93;85.22
80733;BME280;70130;44.534;18.678;2023-08-17T04:39:17;99140.75;;;17.86;85.63
80733;BME280;70130;44.534;18.678;2023-08-17T04:41:43;99134.03;;;17.77;86.18
80733;BME280;70130;44.534;18.678;2023-08-17T04:44:10;99139.06;;;17.75;86.63
80733;BME280;70130;44.534;18.678;2023-08-17T04:46:35;99138.69;;;17.76;86.85
80733;BME280;70130;44.534;18.678;2023-08-17T04:49:01;99142.50;;;17.72;87.20
80733;BME280;70130;44.534;18.678;2023-08-17T04:51:27;99139.34;;;17.66;86.88
80733;BME280;70130;44.534;18.678;2023-08-17T04:53:53;99143.56;;;17.63;86.79
80733;BME280;70130;44.534;18.678;2023-08-17T04:56:18;99143.25;;;17.68;86.83
80733;BME280;70130;44.534;18.678;2023-08-17T04:58:45;99148.63;;;17.65;86.58
80733;BME280;70130;44.534;18.678;2023-08-17T05:01:12;99160.31;;;17.69;87.16
80733;BME280;70130;44.534;18.678;2023-08-17T05:03:38;99158.66;;;17.61;86.94
80733;BME280;70130;44.534;18.678;2023-08-17T05:06:04;99164.53;;;17.66;86.57
80733;BME280;70130;44.534;18.678;2023-08-17T05:08:31;99167.38;;;17.74;86.53
80733;BME280;70130;44.534;18.678;2023-08-17T05:10:56;99159.56;;;17.72;86.67
80733;BME280;70130;44.534;18.678;2023-08-17T05:13:24;99170.22;;;17.84;86.35
80733;BME280;70130;44.534;18.678;2023-08-17T05:15:50;99165.94;;;17.83;86.57
80733;BME280;70130;44.534;18.678;2023-08-17T05:18:15;99170.13;;;17.77;86.78
80733;BME280;70130;44.534;18.678;2023-08-17T05:20:42;99173.31;;;17.83;86.79
80733;BME280;70130;44.534;18.678;2023-08-17T05:23:09;99173.34;;;17.86;86.42
80733;BME280;70130;44.534;18.678;2023-08-17T05:25:35;99167.59;;;17.91;86.32
80733;BME280;70130;44.534;18.678;2023-08-17T05:28:01;99160.34;;;17.99;86.02
80733;BME280;70130;44.534;18.678;2023-08-17T05:30:26;99161.41;;;17.91;85.87
80733;BME280;70130;44.534;18.678;2023-08-17T05:32:52;99156.84;;;17.98;86.20
80733;BME280;70130;44.534;18.678;2023-08-17T05:35:19;99157.03;;;18.16;85.71
80733;BME280;70130;44.534;18.678;2023-08-17T05:37:45;99157.59;;;18.29;85.15
80733;BME280;70130;44.534;18.678;2023-08-17T05:40:11;99164.38;;;18.45;84.54
80733;BME280;70130;44.534;18.678;2023-08-17T05:42:36;99152.00;;;18.48;84.61
80733;BME280;70130;44.534;18.678;2023-08-17T05:45:02;99158.94;;;18.45;84.87
80733;BME280;70130;44.534;18.678;2023-08-17T05:47:28;99158.34;;;18.59;84.02
80733;BME280;70130;44.534;18.678;2023-08-17T05:49:54;99158.84;;;18.68;84.07
80733;BME280;70130;44.534;18.678;2023-08-17T05:52:19;99159.66;;;18.72;83.58
80733;BME280;70130;44.534;18.678;2023-08-17T05:54:45;99160.94;;;18.85;83.14
80733;BME280;70130;44.534;18.678;2023-08-17T05:57:11;99158.63;;;18.87;83.00
80733;BME280;70130;44.534;18.678;2023-08-17T05:59:37;99159.41;;;18.88;83.25
80733;BME280;70130;44.534;18.678;2023-08-17T06:02:03;99162.16;;;18.91;82.64
80733;BME280;70130;44.534;18.678;2023-08-17T06:04:28;99154.81;;;18.95;82.92
80733;BME280;70130;44.534;18.678;2023-08-17T06:06:55;99164.63;;;19.07;82.49
80733;BME280;70130;44.534;18.678;2023-08-17T06:09:20;99165.88;;;19.17;82.13
80733;BME280;70130;44.534;18.678;2023-08-17T06:11:47;99173.72;;;19.25;81.54
80733;BME280;70130;44.534;18.678;2023-08-17T06:14:15;99174.16;;;19.34;81.08
80733;BME280;70130;44.534;18.678;2023-08-17T06:16:41;99175.81;;;19.42;80.80
80733;BME280;70130;44.534;18.678;2023-08-17T06:19:07;99175.84;;;19.46;81.19
80733;BME280;70130;44.534;18.678;2023-08-17T06:21:32;99169.63;;;19.46;80.84
80733;BME280;70130;44.534;18.678;2023-08-17T06:23:58;99173.13;;;19.50;81.33
80733;BME280;70130;44.534;18.678;2023-08-17T06:26:24;99170.84;;;19.52;80.48
80733;BME280;70130;44.534;18.678;2023-08-17T06:28:49;99174.00;;;19.64;81.00
80733;BME280;70130;44.534;18.678;2023-08-17T06:31:16;99173.72;;;19.76;80.54
80733;BME280;70130;44.534;18.678;2023-08-17T06:33:41;99166.34;;;19.80;80.36
80733;BME280;70130;44.534;18.678;2023-08-17T06:36:07;99160.19;;;19.94;79.56
80733;BME280;70130;44.534;18.678;2023-08-17T06:38:33;99166.78;;;19.93;79.42
80733;BME280;70130;44.534;18.678;2023-08-17T06:40:58;99167.19;;;19.92;79.31
80733;BME280;70130;44.534;18.678;2023-08-17T06:43:24;99168.34;;;19.91;79.53
80733;BME280;70130;44.534;18.678;2023-08-17T06:45:50;99167.22;;;19.99;79.38
80733;BME280;70130;44.534;18.678;2023-08-17T06:48:15;99173.47;;;20.03;79.27
80733;BME280;70130;44.534;18.678;2023-08-17T06:50:41;99177.31;;;19.95;79.54
80733;BME280;70130;44.534;18.678;2023-08-17T06:53:07;99177.38;;;20.05;79.45
80733;BME280;70130;44.534;18.678;2023-08-17T06:55:32;99176.94;;;20.00;79.23
80733;BME280;70130;44.534;18.678;2023-08-17T06:57:58;99171.13;;;20.05;79.36
80733;BME280;70130;44.534;18.678;2023-08-17T07:00:24;99178.16;;;20.06;79.09
80733;BME280;70130;44.534;18.678;2023-08-17T07:02:50;99176.22;;;20.13;79.16
80733;BME280;70130;44.534;18.678;2023-08-17T07:05:16;99178.56;;;20.15;79.51
80733;BME280;70130;44.534;18.678;2023-08-17T07:07:42;99181.31;;;20.15;79.43
80733;BME280;70130;44.534;18.678;2023-08-17T07:10:09;99175.13;;;20.28;79.63
80733;BME280;70130;44.534;18.678;2023-08-17T07:12:37;99172.88;;;20.41;78.70
80733;BME280;70130;44.534;18.678;2023-08-17T07:15:03;99176.81;;;20.51;78.78
80733;BME280;70130;44.534;18.678;2023-08-17T07:17:30;99174.47;;;20.60;78.27
80733;BME280;70130;44.534;18.678;2023-08-17T07:19:55;99177.63;;;20.69;77.24
80733;BME280;70130;44.534;18.678;2023-08-17T07:22:21;99185.41;;;20.78;77.03
80733;BME280;70130;44.534;18.678;2023-08-17T07:24:47;99187.78;;;20.97;77.05
80733;BME280;70130;44.534;18.678;2023-08-17T07:27:12;99178.06;;;21.06;76.40
80733;BME280;70130;44.534;18.678;2023-08-17T07:29:38;99179.63;;;21.04;76.18
80733;BME280;70130;44.534;18.678;2023-08-17T07:32:04;99177.28;;;21.06;76.03
80733;BME280;70130;44.534;18.678;2023-08-17T07:34:29;99182.75;;;21.09;75.11
80733;BME280;70130;44.534;18.678;2023-08-17T07:36:57;99180.81;;;21.14;76.11
80733;BME280;70130;44.534;18.678;2023-08-17T07:39:22;99183.16;;;21.15;75.87
80733;BME280;70130;44.534;18.678;2023-08-17T07:41:48;99180.84;;;21.21;75.04
80733;BME280;70130;44.534;18.678;2023-08-17T07:44:14;99170.28;;;21.33;75.39
80733;BME280;70130;44.534;18.678;2023-08-17T07:46:40;99178.47;;;21.58;74.80
80733;BME280;70130;44.534;18.678;2023-08-17T07:49:05;99178.44;;;21.62;74.25
80733;BME280;70130;44.534;18.678;2023-08-17T07:51:31;99169.09;;;21.63;74.34
80733;BME280;70130;44.534;18.678;2023-08-17T07:54:01;99173.00;;;21.58;73.98
80733;BME280;70130;44.534;18.678;2023-08-17T07:56:27;99164.44;;;21.60;74.25
80733;BME280;70130;44.534;18.678;2023-08-17T07:58:56;99171.44;;;21.68;74.04
80733;BME280;70130;44.534;18.678;2023-08-17T08:01:22;99169.88;;;21.70;73.88
80733;BME280;70130;44.534;18.678;2023-08-17T08:03:47;99175.28;;;21.81;73.58
80733;BME280;70130;44.534;18.678;2023-08-17T08:06:13;99180.72;;;21.91;73.65
80733;BME280;70130;44.534;18.678;2023-08-17T08:08:40;99176.47;;;21.83;73.52
80733;BME280;70130;44.534;18.678;2023-08-17T08:11:06;99174.13;;;21.89;73.10
80733;BME280;70130;44.534;18.678;2023-08-17T08:13:31;99174.09;;;21.92;73.44
80733;BME280;70130;44.534;18.678;2023-08-17T08:16:00;99166.69;;;21.96;73.51
80733;BME280;70130;44.534;18.678;2023-08-17T08:18:25;99169.44;;;22.00;72.67
80733;BME280;70130;44.534;18.678;2023-08-17T08:20:51;99168.63;;;22.03;72.90
80733;BME280;70130;44.534;18.678;2023-08-17T08:23:17;99161.22;;;22.04;72.49
80733;BME280;70130;44.534;18.678;2023-08-17T08:25:42;99169.78;;;22.13;71.80
80733;BME280;70130;44.534;18.678;2023-08-17T08:28:09;99164.69;;;22.18;71.73
80733;BME280;70130;44.534;18.678;2023-08-17T08:30:34;99163.09;;;22.24;71.62
80733;BME280;70130;44.534;18.678;2023-08-17T08:33:01;99163.81;;;22.32;71.33
80733;BME280;70130;44.534;18.678;2023-08-17T08:35:27;99164.97;;;22.38;70.96
80733;BME280;70130;44.534;18.678;2023-08-17T08:37:53;99164.09;;;22.55;71.06
80733;BME280;70130;44.534;18.678;2023-08-17T08:40:27;99159.34;;;22.66;70.11
80733;BME280;70130;44.534;18.678;2023-08-17T08:42:52;99162.84;;;22.67;70.15
80733;BME280;70130;44.534;18.678;2023-08-17T08:45:18;99154.66;;;22.67;70.42
80733;BME280;70130;44.534;18.678;2023-08-17T08:47:45;99149.94;;;22.74;70.18
80733;BME280;70130;44.534;18.678;2023-08-17T08:50:17;99159.22;;;22.91;69.66
80733;BME280;70130;44.534;18.678;2023-08-17T08:52:53;99155.22;;;22.99;69.62
80733;BME280;70130;44.534;18.678;2023-08-17T08:55:23;99154.28;;;23.23;68.63
80733;BME280;70130;44.534;18.678;2023-08-17T08:57:50;99152.72;;;23.22;68.58
80733;BME280;70130;44.534;18.678;2023-08-17T09:00:18;99150.22;;;23.39;68.19
80733;BME280;70130;44.534;18.678;2023-08-17T09:02:44;99149.69;;;23.58;67.69
80733;BME280;70130;44.534;18.678;2023-08-17T09:05:10;99148.03;;;23.64;66.49
80733;BME280;70130;44.534;18.678;2023-08-17T09:07:37;99147.41;;;23.87;65.85
80733;BME280;70130;44.534;18.678;2023-08-17T09:10:04;99141.81;;;23.97;66.01
80733;BME280;70130;44.534;18.678;2023-08-17T09:12:30;99143.28;;;24.05;64.83
80733;BME280;70130;44.534;18.678;2023-08-17T09:14:56;99149.22;;;24.00;62.49
80733;BME280;70130;44.534;18.678;2023-08-17T09:17:28;99145.63;;;24.03;61.91
80733;BME280;70130;44.534;18.678;2023-08-17T09:19:54;99145.75;;;23.96;63.25
80733;BME280;70130;44.534;18.678;2023-08-17T09:22:42;99136.16;;;24.12;62.24
80733;BME280;70130;44.534;18.678;2023-08-17T09:25:09;99131.31;;;24.23;62.86
80733;BME280;70130;44.534;18.678;2023-08-17T09:27:36;99132.66;;;24.41;62.59
80733;BME280;70130;44.534;18.678;2023-08-17T09:30:07;99131.00;;;24.47;62.59
80733;BME280;70130;44.534;18.678;2023-08-17T09:32:34;99133.72;;;24.47;63.64
80733;BME280;70130;44.534;18.678;2023-08-17T09:35:03;99130.06;;;24.58;62.84
80733;BME280;70130;44.534;18.678;2023-08-17T09:37:31;99128.34;;;24.67;62.17
80733;BME280;70130;44.534;18.678;2023-08-17T09:39:57;99119.47;;;24.86;61.41
80733;BME280;70130;44.534;18.678;2023-08-17T09:42:23;99128.31;;;24.98;61.81
80733;BME280;70130;44.534;18.678;2023-08-17T09:44:51;99123.13;;;25.03;61.19
80733;BME280;70130;44.534;18.678;2023-08-17T09:47:17;99123.91;;;25.04;61.53
80733;BME280;70130;44.534;18.678;2023-08-17T09:49:53;99111.38;;;25.03;60.06
80733;BME280;70130;44.534;18.678;2023-08-17T09:52:22;99115.28;;;25.02;61.10
80733;BME280;70130;44.534;18.678;2023-08-17T09:54:52;99120.78;;;25.02;60.81
80733;BME280;70130;44.534;18.678;2023-08-17T09:57:19;99119.03;;;25.15;60.37
80733;BME280;70130;44.534;18.678;2023-08-17T09:59:45;99112.56;;;25.25;60.19
80733;BME280;70130;44.534;18.678;2023-08-17T10:02:19;99114.22;;;25.42;59.17
80733;BME280;70130;44.534;18.678;2023-08-17T10:04:53;99101.47;;;25.52;59.57
80733;BME280;70130;44.534;18.678;2023-08-17T10:07:20;99104.84;;;25.63;58.47
80733;BME280;70130;44.534;18.678;2023-08-17T10:09:58;99102.28;;;25.72;58.56
80733;BME280;70130;44.534;18.678;2023-08-17T10:12:27;99101.66;;;25.64;57.73
80733;BME280;70130;44.534;18.678;2023-08-17T10:15:02;99100.41;;;25.89;57.45
80733;BME280;70130;44.534;18.678;2023-08-17T10:17:35;99101.66;;;26.04;57.94
80733;BME280;70130;44.534;18.678;2023-08-17T10:20:03;99094.25;;;26.01;57.32
80733;BME280;70130;44.534;18.678;2023-08-17T10:25:05;99098.44;;;25.89;56.93
80733;BME280;70130;44.534;18.678;2023-08-17T10:27:34;99099.69;;;25.65;58.22
80733;BME280;70130;44.534;18.678;2023-08-17T10:30:01;99099.06;;;25.77;58.16
80733;BME280;70130;44.534;18.678;2023-08-17T10:32:27;99103.22;;;25.85;57.49
80733;BME280;70130;44.534;18.678;2023-08-17T10:34:53;99101.16;;;26.09;57.23
80733;BME280;70130;44.534;18.678;2023-08-17T10:37:20;99091.06;;;26.22;56.19
80733;BME280;70130;44.534;18.678;2023-08-17T10:39:47;99089.28;;;26.32;56.71
80733;BME280;70130;44.534;18.678;2023-08-17T10:42:14;99092.47;;;26.30;56.99
80733;BME280;70130;44.534;18.678;2023-08-17T10:44:48;99089.19;;;26.35;56.38
80733;BME280;70130;44.534;18.678;2023-08-17T10:47:28;99087.75;;;26.31;56.85
80733;BME280;70130;44.534;18.678;2023-08-17T10:52:34;99094.31;;;25.97;57.96
80733;BME280;70130;44.534;18.678;2023-08-17T10:55:07;99089.41;;;25.89;57.70
80733;BME280;70130;44.534;18.678;2023-08-17T10:57:39;99090.22;;;25.86;56.29
80733;BME280;70130;44.534;18.678;2023-08-17T11:02:37;99076.34;;;25.93;56.56
80733;BME280;70130;44.534;18.678;2023-08-17T11:05:04;99077.47;;;25.95;56.97
80733;BME280;70130;44.534;18.678;2023-08-17T11:07:43;99079.66;;;26.04;56.17
80733;BME280;70130;44.534;18.678;2023-08-17T11:10:27;99071.44;;;26.20;55.45
80733;BME280;70130;44.534;18.678;2023-08-17T11:12:54;99083.00;;;26.31;55.34
80733;BME280;70130;44.534;18.678;2023-08-17T11:15:44;99080.44;;;26.24;55.27
80733;BME280;70130;44.534;18.678;2023-08-17T11:18:11;99079.56;;;26.27;55.28
80733;BME280;70130;44.534;18.678;2023-08-17T11:20:39;99069.84;;;26.23;55.22
80733;BME280;70130;44.534;18.678;2023-08-17T11:23:06;99074.25;;;26.36;55.51
80733;BME280;70130;44.534;18.678;2023-08-17T11:25:32;99061.38;;;26.49;54.75
80733;BME280;70130;44.534;18.678;2023-08-17T11:28:00;99072.47;;;26.46;53.18
80733;BME280;70130;44.534;18.678;2023-08-17T11:30:27;99065.19;;;26.19;53.64
80733;BME280;70130;44.534;18.678;2023-08-17T11:32:54;99060.81;;;26.22;53.72
80733;BME280;70130;44.534;18.678;2023-08-17T11:35:21;99066.09;;;26.13;54.93
80733;BME280;70130;44.534;18.678;2023-08-17T11:37:48;99065.19;;;26.19;55.21
80733;BME280;70130;44.534;18.678;2023-08-17T11:40:16;99062.38;;;26.23;54.36
80733;BME280;70130;44.534;18.678;2023-08-17T11:42:43;99060.09;;;26.18;54.11
80733;BME280;70130;44.534;18.678;2023-08-17T11:45:09;99053.63;;;26.08;53.96
80733;BME280;70130;44.534;18.678;2023-08-17T11:47:38;99061.88;;;26.28;53.59
80733;BME280;70130;44.534;18.678;2023-08-17T11:50:06;99054.34;;;26.48;53.29
80733;BME280;70130;44.534;18.678;2023-08-17T11:52:33;99061.81;;;26.64;52.88
80733;BME280;70130;44.534;18.678;2023-08-17T11:55:02;99056.13;;;26.71;53.21
80733;BME280;70130;44.534;18.678;2023-08-17T11:57:30;99058.47;;;26.73;53.01
80733;BME280;70130;44.534;18.678;2023-08-17T11:59:56;99055.09;;;26.81;53.22
80733;BME280;70130;44.534;18.678;2023-08-17T12:02:26;99056.47;;;26.57;53.78
80733;BME280;70130;44.534;18.678;2023-08-17T12:04:55;99047.28;;;26.63;53.44
80733;BME280;70130;44.534;18.678;2023-08-17T12:07:27;99047.19;;;26.83;54.02
80733;BME280;70130;44.534;18.678;2023-08-17T12:09:53;99041.56;;;27.19;52.78
80733;BME280;70130;44.534;18.678;2023-08-17T12:12:21;99040.03;;;27.18;52.25
80733;BME280;70130;44.534;18.678;2023-08-17T12:14:48;99030.75;;;27.12;51.97
80733;BME280;70130;44.534;18.678;2023-08-17T12:17:18;99030.09;;;26.92;52.78
80733;BME280;70130;44.534;18.678;2023-08-17T12:19:44;99028.44;;;26.94;52.44
80733;BME280;70130;44.534;18.678;2023-08-17T12:22:12;99029.13;;;26.66;52.82
80733;BME280;70130;44.534;18.678;2023-08-17T12:24:38;99024.91;;;26.78;52.92
80733;BME280;70130;44.534;18.678;2023-08-17T12:27:05;99022.59;;;26.92;52.89
80733;BME280;70130;44.534;18.678;2023-08-17T12:29:31;99020.94;;;26.95;52.73
80733;BME280;70130;44.534;18.678;2023-08-17T12:31:58;99026.47;;;26.79;52.95
80733;BME280;70130;44.534;18.678;2023-08-17T12:34:24;99023.28;;;26.64;53.02
80733;BME280;70130;44.534;18.678;2023-08-17T12:36:50;99015.56;;;26.59;53.70
80733;BME280;70130;44.534;18.678;2023-08-17T12:39:16;99015.09;;;26.77;53.50
80733;BME280;70130;44.534;18.678;2023-08-17T12:41:42;99018.13;;;26.98;53.21
80733;BME280;70130;44.534;18.678;2023-08-17T12:44:11;99017.91;;;27.05;52.52
80733;BME280;70130;44.534;18.678;2023-08-17T12:46:40;99016.38;;;27.04;53.89
80733;BME280;70130;44.534;18.678;2023-08-17T12:49:06;99008.47;;;27.06;53.32
80733;BME280;70130;44.534;18.678;2023-08-17T12:51:32;99008.03;;;27.08;52.93
80733;BME280;70130;44.534;18.678;2023-08-17T12:53:58;99006.22;;;27.30;52.83
80733;BME280;70130;44.534;18.678;2023-08-17T12:56:23;99003.84;;;27.74;51.32
80733;BME280;70130;44.534;18.678;2023-08-17T12:58:49;99005.63;;;27.93;50.77
80733;BME280;70130;44.534;18.678;2023-08-17T13:01:14;98998.34;;;27.99;50.41
80733;BME280;70130;44.534;18.678;2023-08-17T13:03:40;98997.13;;;27.75;50.28
80733;BME280;70130;44.534;18.678;2023-08-17T13:06:07;98994.72;;;28.27;49.82